sensor_id;sensor_type;location;lat;lon;timestamp;temperature;humidity
42085;DHT22;27746;52.228;20.890;2023-05-07T00:02:10;6.10;99.90
42085;DHT22;27746;52.228;20.890;2023-05-07T00:16:53;6.00;99.90
42085;DHT22;27746;52.228;20.890;2023-05-07T00:19:21;6.00;99.90
42085;DHT22;27746;52.228;20.890;2023-05-07T00:21:48;6.00;99.90
42085;DHT22;27746;52.228;20.890;2023-05-07T00:26:41;6.00;99.90
42085;DHT22;27746;52.228;20.890;2023-05-07T00:29:08;6.00;99.90
42085;DHT22;27746;52.228;20.890;2023-05-07T00:31:35;6.00;99.90
42085;DHT22;27746;52.228;20.890;2023-05-07T00:36:31;6.00;99.90
42085;DHT22;27746;52.228;20.890;2023-05-07T00:38:59;6.00;99.90
42085;DHT22;27746;52.228;20.890;2023-05-07T00:41:28;6.00;99.90
42085;DHT22;27746;52.228;20.890;2023-05-07T00:46:23;5.90;99.90
42085;DHT22;27746;52.228;20.890;2023-05-07T00:48:51;5.90;99.90
42085;DHT22;27746;52.228;20.890;2023-05-07T00:53:47;6.00;99.90
42085;DHT22;27746;52.228;20.890;2023-05-07T00:56:14;5.90;99.90
42085;DHT22;27746;52.228;20.890;2023-05-07T00:58:41;5.90;99.90
42085;DHT22;27746;52.228;20.890;2023-05-07T01:06:03;5.90;99.90
42085;DHT22;27746;52.228;20.890;2023-05-07T01:08:30;5.90;99.90
42085;DHT22;27746;52.228;20.890;2023-05-07T01:10:59;5.80;99.90
42085;DHT22;27746;52.228;20.890;2023-05-07T01:13:27;5.80;99.90
42085;DHT22;27746;52.228;20.890;2023-05-07T01:18:21;5.80;99.90
42085;DHT22;27746;52.228;20.890;2023-05-07T01:23:17;5.80;99.90
42085;DHT22;27746;52.228;20.890;2023-05-07T01:25:51;5.70;99.90
42085;DHT22;27746;52.228;20.890;2023-05-07T01:28:18;5.60;99.90
42085;DHT22;27746;52.228;20.890;2023-05-07T01:30:48;5.70;99.90
42085;DHT22;27746;52.228;20.890;2023-05-07T01:33:19;5.80;99.90
42085;DHT22;27746;52.228;20.890;2023-05-07T01:35:50;5.70;99.90
42085;DHT22;27746;52.228;20.890;2023-05-07T01:38:19;5.70;99.90
42085;DHT22;27746;52.228;20.890;2023-05-07T01:45:42;5.70;99.90
42085;DHT22;27746;52.228;20.890;2023-05-07T01:48:11;5.70;99.90
42085;DHT22;27746;52.228;20.890;2023-05-07T01:50:39;5.70;99.90
42085;DHT22;27746;52.228;20.890;2023-05-07T01:55:36;5.60;99.90
42085;DHT22;27746;52.228;20.890;2023-05-07T02:00:31;5.60;99.90
42085;DHT22;27746;52.228;20.890;2023-05-07T02:12:49;5.50;99.90
42085;DHT22;27746;52.228;20.890;2023-05-07T02:17:58;5.60;99.90
42085;DHT22;27746;52.228;20.890;2023-05-07T02:22:52;5.50;99.90
42085;DHT22;27746;52.228;20.890;2023-05-07T02:30:15;5.50;99.90
42085;DHT22;27746;52.228;20.890;2023-05-07T02:32:42;5.50;99.90
42085;DHT22;27746;52.228;20.890;2023-05-07T02:35:09;5.50;99.90
42085;DHT22;27746;52.228;20.890;2023-05-07T02:40:04;5.50;99.90
42085;DHT22;27746;52.228;20.890;2023-05-07T02:42:31;5.60;99.90
42085;DHT22;27746;52.228;20.890;2023-05-07T02:47:26;5.60;99.90
42085;DHT22;27746;52.228;20.890;2023-05-07T02:49:54;5.50;99.90
42085;DHT22;27746;52.228;20.890;2023-05-07T02:52:21;5.50;99.90
42085;DHT22;27746;52.228;20.890;2023-05-07T02:54:48;5.50;99.90
42085;DHT22;27746;52.228;20.890;2023-05-07T03:04:40;5.50;99.90
42085;DHT22;27746;52.228;20.890;2023-05-07T03:09:34;5.50;99.90
42085;DHT22;27746;52.228;20.890;2023-05-07T03:12:01;5.50;99.90
42085;DHT22;27746;52.228;20.890;2023-05-07T03:14:28;5.50;99.90
42085;DHT22;27746;52.228;20.890;2023-05-07T03:16:54;5.50;99.90
42085;DHT22;27746;52.228;20.890;2023-05-07T03:21:50;5.50;99.90
42085;DHT22;27746;52.228;20.890;2023-05-07T03:31:38;5.50;99.90
42085;DHT22;27746;52.228;20.890;2023-05-07T03:39:01;5.50;99.90
42085;DHT22;27746;52.228;20.890;2023-05-07T03:43:55;5.50;99.90
42085;DHT22;27746;52.228;20.890;2023-05-07T03:46:22;5.50;99.90
42085;DHT22;27746;52.228;20.890;2023-05-07T03:51:18;5.50;99.90
42085;DHT22;27746;52.228;20.890;2023-05-07T03:56:14;5.50;99.90
42085;DHT22;27746;52.228;20.890;2023-05-07T03:58:41;5.50;99.90
42085;DHT22;27746;52.228;20.890;2023-05-07T04:01:08;5.50;99.90
42085;DHT22;27746;52.228;20.890;2023-05-07T04:03:35;5.50;99.90
42085;DHT22;27746;52.228;20.890;2023-05-07T04:06:01;5.50;99.90
42085;DHT22;27746;52.228;20.890;2023-05-07T04:10:56;5.60;99.90
42085;DHT22;27746;52.228;20.890;2023-05-07T04:13:24;5.60;99.90
42085;DHT22;27746;52.228;20.890;2023-05-07T04:18:19;5.60;99.90
42085;DHT22;27746;52.228;20.890;2023-05-07T04:28:09;5.60;99.90
42085;DHT22;27746;52.228;20.890;2023-05-07T04:30:37;5.60;99.90
42085;DHT22;27746;52.228;20.890;2023-05-07T04:33:04;5.60;99.90
42085;DHT22;27746;52.228;20.890;2023-05-07T04:47:50;5.60;99.90
42085;DHT22;27746;52.228;20.890;2023-05-07T04:52:45;5.70;99.90
42085;DHT22;27746;52.228;20.890;2023-05-07T04:55:12;5.70;99.90
42085;DHT22;27746;52.228;20.890;2023-05-07T04:57:39;5.70;99.90
42085;DHT22;27746;52.228;20.890;2023-05-07T05:00:07;5.70;99.90
42085;DHT22;27746;52.228;20.890;2023-05-07T05:05:04;5.70;99.90
42085;DHT22;27746;52.228;20.890;2023-05-07T05:07:31;5.80;99.90
42085;DHT22;27746;52.228;20.890;2023-05-07T05:09:58;5.80;99.90
42085;DHT22;27746;52.228;20.890;2023-05-07T05:14:54;5.80;99.90
42085;DHT22;27746;52.228;20.890;2023-05-07T05:17:21;5.90;99.90
42085;DHT22;27746;52.228;20.890;2023-05-07T05:19:48;5.90;99.90
42085;DHT22;27746;52.228;20.890;2023-05-07T05:22:16;6.00;99.90
42085;DHT22;27746;52.228;20.890;2023-05-07T05:24:43;6.00;99.90
42085;DHT22;27746;52.228;20.890;2023-05-07T05:34:34;6.20;99.90
42085;DHT22;27746;52.228;20.890;2023-05-07T05:37:01;6.30;99.90
42085;DHT22;27746;52.228;20.890;2023-05-07T05:39:29;6.30;99.90
42085;DHT22;27746;52.228;20.890;2023-05-07T05:44:23;6.30;99.90
42085;DHT22;27746;52.228;20.890;2023-05-07T05:46:50;6.40;99.90
42085;DHT22;27746;52.228;20.890;2023-05-07T05:51:47;6.40;99.90
42085;DHT22;27746;52.228;20.890;2023-05-07T05:56:43;6.40;99.90
42085;DHT22;27746;52.228;20.890;2023-05-07T05:59:10;6.40;99.90
42085;DHT22;27746;52.228;20.890;2023-05-07T06:06:31;6.70;99.90
42085;DHT22;27746;52.228;20.890;2023-05-07T06:11:25;7.00;99.90
42085;DHT22;27746;52.228;20.890;2023-05-07T06:13:54;6.90;99.90
42085;DHT22;27746;52.228;20.890;2023-05-07T06:16:20;6.90;99.90
42085;DHT22;27746;52.228;20.890;2023-05-07T06:18:47;6.90;99.90
42085;DHT22;27746;52.228;20.890;2023-05-07T06:21:14;6.80;99.90
42085;DHT22;27746;52.228;20.890;2023-05-07T06:28:35;6.90;99.90
42085;DHT22;27746;52.228;20.890;2023-05-07T06:31:13;6.90;99.90
42085;DHT22;27746;52.228;20.890;2023-05-07T06:36:08;7.20;99.90
42085;DHT22;27746;52.228;20.890;2023-05-07T06:43:29;7.10;99.90
42085;DHT22;27746;52.228;20.890;2023-05-07T06:48:25;7.30;99.90
42085;DHT22;27746;52.228;20.890;2023-05-07T06:50:51;7.30;99.90
42085;DHT22;27746;52.228;20.890;2023-05-07T06:53:20;7.40;99.90
42085;DHT22;27746;52.228;20.890;2023-05-07T06:58:14;7.50;99.90
42085;DHT22;27746;52.228;20.890;2023-05-07T07:00:41;7.50;99.90
42085;DHT22;27746;52.228;20.890;2023-05-07T07:03:08;7.60;99.90
42085;DHT22;27746;52.228;20.890;2023-05-07T07:05:36;7.70;99.90
42085;DHT22;27746;52.228;20.890;2023-05-07T07:08:03;7.70;99.90
42085;DHT22;27746;52.228;20.890;2023-05-07T07:15:25;7.90;99.90
42085;DHT22;27746;52.228;20.890;2023-05-07T07:17:52;8.00;99.90
42085;DHT22;27746;52.228;20.890;2023-05-07T07:20:19;8.00;99.90
42085;DHT22;27746;52.228;20.890;2023-05-07T07:22:47;8.10;99.90
42085;DHT22;27746;52.228;20.890;2023-05-07T07:25:14;8.00;99.90
42085;DHT22;27746;52.228;20.890;2023-05-07T07:30:09;8.00;99.90
42085;DHT22;27746;52.228;20.890;2023-05-07T07:35:03;8.10;99.90
42085;DHT22;27746;52.228;20.890;2023-05-07T07:37:30;8.20;99.90
42085;DHT22;27746;52.228;20.890;2023-05-07T07:40:00;8.30;99.90
42085;DHT22;27746;52.228;20.890;2023-05-07T07:42:26;8.20;99.90
42085;DHT22;27746;52.228;20.890;2023-05-07T07:44:54;8.40;99.90
42085;DHT22;27746;52.228;20.890;2023-05-07T07:47:22;8.50;99.90
42085;DHT22;27746;52.228;20.890;2023-05-07T07:49:49;8.50;99.90
42085;DHT22;27746;52.228;20.890;2023-05-07T07:52:16;8.50;99.90
42085;DHT22;27746;52.228;20.890;2023-05-07T07:57:13;8.50;99.90
42085;DHT22;27746;52.228;20.890;2023-05-07T08:07:03;8.40;99.90
42085;DHT22;27746;52.228;20.890;2023-05-07T08:09:31;8.30;99.90
42085;DHT22;27746;52.228;20.890;2023-05-07T08:11:58;8.30;99.90
42085;DHT22;27746;52.228;20.890;2023-05-07T08:14:26;8.40;99.90
42085;DHT22;27746;52.228;20.890;2023-05-07T08:16:53;8.40;99.90
42085;DHT22;27746;52.228;20.890;2023-05-07T08:21:48;8.50;99.90
42085;DHT22;27746;52.228;20.890;2023-05-07T08:31:39;8.50;99.90
42085;DHT22;27746;52.228;20.890;2023-05-07T08:34:06;8.60;99.90
42085;DHT22;27746;52.228;20.890;2023-05-07T08:43:57;9.40;99.90
42085;DHT22;27746;52.228;20.890;2023-05-07T08:46:25;9.40;99.90
42085;DHT22;27746;52.228;20.890;2023-05-07T08:48:53;9.40;99.90
42085;DHT22;27746;52.228;20.890;2023-05-07T08:51:21;9.50;99.90
42085;DHT22;27746;52.228;20.890;2023-05-07T08:53:49;9.70;99.90
42085;DHT22;27746;52.228;20.890;2023-05-07T08:56:16;9.70;99.90
42085;DHT22;27746;52.228;20.890;2023-05-07T09:01:14;9.40;99.90
42085;DHT22;27746;52.228;20.890;2023-05-07T09:03:42;9.30;99.90
42085;DHT22;27746;52.228;20.890;2023-05-07T09:06:12;9.30;99.90
42085;DHT22;27746;52.228;20.890;2023-05-07T09:08:38;9.50;99.90
42085;DHT22;27746;52.228;20.890;2023-05-07T09:13:32;9.40;99.90
42085;DHT22;27746;52.228;20.890;2023-05-07T09:16:10;9.30;99.90
42085;DHT22;27746;52.228;20.890;2023-05-07T09:18:41;9.30;99.90
42085;DHT22;27746;52.228;20.890;2023-05-07T09:21:11;9.30;99.90
42085;DHT22;27746;52.228;20.890;2023-05-07T09:23:41;9.30;99.90
42085;DHT22;27746;52.228;20.890;2023-05-07T09:26:08;9.20;99.90
42085;DHT22;27746;52.228;20.890;2023-05-07T09:28:39;9.40;99.90
42085;DHT22;27746;52.228;20.890;2023-05-07T09:31:07;9.50;99.90
42085;DHT22;27746;52.228;20.890;2023-05-07T09:33:34;9.60;99.90
42085;DHT22;27746;52.228;20.890;2023-05-07T09:36:04;9.60;99.90
42085;DHT22;27746;52.228;20.890;2023-05-07T09:38:33;9.40;99.50
42085;DHT22;27746;52.228;20.890;2023-05-07T09:41:04;9.30;99.80
42085;DHT22;27746;52.228;20.890;2023-05-07T09:43:34;9.30;99.40
42085;DHT22;27746;52.228;20.890;2023-05-07T09:46:07;9.40;99.30
42085;DHT22;27746;52.228;20.890;2023-05-07T09:48:37;9.60;99.00
42085;DHT22;27746;52.228;20.890;2023-05-07T09:51:12;9.80;99.40
42085;DHT22;27746;52.228;20.890;2023-05-07T09:53:43;10.50;98.40
42085;DHT22;27746;52.228;20.890;2023-05-07T09:56:13;9.80;97.90
42085;DHT22;27746;52.228;20.890;2023-05-07T09:58:41;9.70;97.60
42085;DHT22;27746;52.228;20.890;2023-05-07T10:01:10;9.60;97.30
42085;DHT22;27746;52.228;20.890;2023-05-07T10:03:40;9.80;97.70
42085;DHT22;27746;52.228;20.890;2023-05-07T10:06:08;10.10;96.90
42085;DHT22;27746;52.228;20.890;2023-05-07T10:11:05;10.20;95.80
42085;DHT22;27746;52.228;20.890;2023-05-07T10:13:33;10.20;95.80
42085;DHT22;27746;52.228;20.890;2023-05-07T10:16:03;10.30;95.80
42085;DHT22;27746;52.228;20.890;2023-05-07T10:21:02;10.30;95.60
42085;DHT22;27746;52.228;20.890;2023-05-07T10:23:32;10.20;95.40
42085;DHT22;27746;52.228;20.890;2023-05-07T10:26:01;10.00;94.70
42085;DHT22;27746;52.228;20.890;2023-05-07T10:28:31;9.90;94.40
42085;DHT22;27746;52.228;20.890;2023-05-07T10:31:13;10.10;95.40
42085;DHT22;27746;52.228;20.890;2023-05-07T10:33:42;10.30;94.90
42085;DHT22;27746;52.228;20.890;2023-05-07T10:38:38;10.60;94.40
42085;DHT22;27746;52.228;20.890;2023-05-07T10:41:06;10.60;92.60
42085;DHT22;27746;52.228;20.890;2023-05-07T10:43:45;10.60;93.20
42085;DHT22;27746;52.228;20.890;2023-05-07T10:46:15;10.70;93.00
42085;DHT22;27746;52.228;20.890;2023-05-07T10:49:10;10.50;92.20
42085;DHT22;27746;52.228;20.890;2023-05-07T10:51:38;10.30;93.00
42085;DHT22;27746;52.228;20.890;2023-05-07T10:54:26;10.20;93.30
42085;DHT22;27746;52.228;20.890;2023-05-07T10:56:53;10.20;93.10
42085;DHT22;27746;52.228;20.890;2023-05-07T10:59:34;10.10;93.30
42085;DHT22;27746;52.228;20.890;2023-05-07T11:02:07;10.00;93.50
42085;DHT22;27746;52.228;20.890;2023-05-07T11:04:35;9.90;93.70
42085;DHT22;27746;52.228;20.890;2023-05-07T11:07:27;10.00;94.20
42085;DHT22;27746;52.228;20.890;2023-05-07T11:09:58;9.90;93.90
42085;DHT22;27746;52.228;20.890;2023-05-07T11:12:52;9.80;94.00
42085;DHT22;27746;52.228;20.890;2023-05-07T11:15:42;9.80;93.90
42085;DHT22;27746;52.228;20.890;2023-05-07T11:18:10;9.70;93.90
42085;DHT22;27746;52.228;20.890;2023-05-07T11:20:54;9.80;94.10
42085;DHT22;27746;52.228;20.890;2023-05-07T11:23:56;9.80;94.50
42085;DHT22;27746;52.228;20.890;2023-05-07T11:26:24;10.00;93.90
42085;DHT22;27746;52.228;20.890;2023-05-07T11:28:52;10.20;92.80
42085;DHT22;27746;52.228;20.890;2023-05-07T11:31:23;10.30;92.80
42085;DHT22;27746;52.228;20.890;2023-05-07T11:33:52;10.50;92.40
42085;DHT22;27746;52.228;20.890;2023-05-07T11:36:20;10.50;92.30
42085;DHT22;27746;52.228;20.890;2023-05-07T11:41:16;10.40;92.90
42085;DHT22;27746;52.228;20.890;2023-05-07T11:43:56;10.40;92.90
42085;DHT22;27746;52.228;20.890;2023-05-07T11:46:25;10.60;92.70
42085;DHT22;27746;52.228;20.890;2023-05-07T11:51:20;10.70;92.20
42085;DHT22;27746;52.228;20.890;2023-05-07T11:53:48;10.70;92.20
42085;DHT22;27746;52.228;20.890;2023-05-07T11:56:16;10.70;92.00
42085;DHT22;27746;52.228;20.890;2023-05-07T11:58:44;10.70;91.60
42085;DHT22;27746;52.228;20.890;2023-05-07T12:01:13;10.70;91.80
42085;DHT22;27746;52.228;20.890;2023-05-07T12:03:43;10.90;91.90
42085;DHT22;27746;52.228;20.890;2023-05-07T12:08:39;11.20;91.20
42085;DHT22;27746;52.228;20.890;2023-05-07T12:11:10;11.30;91.20
42085;DHT22;27746;52.228;20.890;2023-05-07T12:13:39;11.40;91.10
42085;DHT22;27746;52.228;20.890;2023-05-07T12:16:06;11.50;91.70
42085;DHT22;27746;52.228;20.890;2023-05-07T12:18:37;11.40;91.10
42085;DHT22;27746;52.228;20.890;2023-05-07T12:21:06;11.20;90.70
42085;DHT22;27746;52.228;20.890;2023-05-07T12:23:34;11.10;91.00
42085;DHT22;27746;52.228;20.890;2023-05-07T12:26:03;11.00;90.50
42085;DHT22;27746;52.228;20.890;2023-05-07T12:28:30;11.40;90.70
42085;DHT22;27746;52.228;20.890;2023-05-07T12:30:57;12.20;90.30
42085;DHT22;27746;52.228;20.890;2023-05-07T12:33:26;10.80;91.30
42085;DHT22;27746;52.228;20.890;2023-05-07T12:35:55;10.70;90.80
42085;DHT22;27746;52.228;20.890;2023-05-07T12:38:23;10.80;90.90
42085;DHT22;27746;52.228;20.890;2023-05-07T12:40:53;11.00;91.90
42085;DHT22;27746;52.228;20.890;2023-05-07T12:43:23;11.10;90.60
42085;DHT22;27746;52.228;20.890;2023-05-07T12:45:52;11.00;90.30
42085;DHT22;27746;52.228;20.890;2023-05-07T12:48:20;11.10;90.90
42085;DHT22;27746;52.228;20.890;2023-05-07T12:50:49;10.90;90.20
42085;DHT22;27746;52.228;20.890;2023-05-07T12:53:16;11.00;91.30
42085;DHT22;27746;52.228;20.890;2023-05-07T12:55:47;11.10;90.50
42085;DHT22;27746;52.228;20.890;2023-05-07T12:58:16;11.30;90.80
42085;DHT22;27746;52.228;20.890;2023-05-07T13:00:43;11.40;90.40
42085;DHT22;27746;52.228;20.890;2023-05-07T13:03:11;11.40;90.00
42085;DHT22;27746;52.228;20.890;2023-05-07T13:05:38;11.30;89.20
42085;DHT22;27746;52.228;20.890;2023-05-07T13:10:35;11.40;89.70
42085;DHT22;27746;52.228;20.890;2023-05-07T13:13:03;11.20;90.20
42085;DHT22;27746;52.228;20.890;2023-05-07T13:15:30;11.40;91.30
42085;DHT22;27746;52.228;20.890;2023-05-07T13:17:57;11.30;88.90
42085;DHT22;27746;52.228;20.890;2023-05-07T13:22:51;11.40;90.00
42085;DHT22;27746;52.228;20.890;2023-05-07T13:25:18;11.20;87.50
42085;DHT22;27746;52.228;20.890;2023-05-07T13:27:45;11.30;88.90
42085;DHT22;27746;52.228;20.890;2023-05-07T13:30:13;11.10;87.60
42085;DHT22;27746;52.228;20.890;2023-05-07T13:32:40;11.20;88.20
42085;DHT22;27746;52.228;20.890;2023-05-07T13:35:07;11.20;89.80
42085;DHT22;27746;52.228;20.890;2023-05-07T13:37:34;11.20;88.20
42085;DHT22;27746;52.228;20.890;2023-05-07T13:40:02;11.30;90.80
42085;DHT22;27746;52.228;20.890;2023-05-07T13:42:29;11.30;90.00
42085;DHT22;27746;52.228;20.890;2023-05-07T13:44:56;11.40;90.90
42085;DHT22;27746;52.228;20.890;2023-05-07T13:47:24;11.40;90.20
42085;DHT22;27746;52.228;20.890;2023-05-07T13:49:51;11.40;89.60
42085;DHT22;27746;52.228;20.890;2023-05-07T13:52:19;11.30;88.10
42085;DHT22;27746;52.228;20.890;2023-05-07T13:54:46;11.20;90.20
42085;DHT22;27746;52.228;20.890;2023-05-07T13:57:12;11.20;90.00
42085;DHT22;27746;52.228;20.890;2023-05-07T13:59:40;11.20;90.50
42085;DHT22;27746;52.228;20.890;2023-05-07T14:02:07;11.20;89.40
42085;DHT22;27746;52.228;20.890;2023-05-07T14:04:37;11.30;88.90
42085;DHT22;27746;52.228;20.890;2023-05-07T14:07:04;11.40;90.00
42085;DHT22;27746;52.228;20.890;2023-05-07T14:09:31;11.60;88.10
42085;DHT22;27746;52.228;20.890;2023-05-07T14:11:58;11.80;87.40
42085;DHT22;27746;52.228;20.890;2023-05-07T14:14:25;11.80;85.60
42085;DHT22;27746;52.228;20.890;2023-05-07T14:16:52;11.70;87.30
42085;DHT22;27746;52.228;20.890;2023-05-07T14:19:19;11.60;87.80
42085;DHT22;27746;52.228;20.890;2023-05-07T14:21:49;11.50;87.20
42085;DHT22;27746;52.228;20.890;2023-05-07T14:24:16;11.60;88.00
42085;DHT22;27746;52.228;20.890;2023-05-07T14:26:43;11.70;87.10
42085;DHT22;27746;52.228;20.890;2023-05-07T14:29:10;11.60;86.10
42085;DHT22;27746;52.228;20.890;2023-05-07T14:31:37;11.70;87.20
42085;DHT22;27746;52.228;20.890;2023-05-07T14:34:04;11.80;86.60
42085;DHT22;27746;52.228;20.890;2023-05-07T14:36:31;11.70;84.10
42085;DHT22;27746;52.228;20.890;2023-05-07T14:38:59;11.70;84.50
42085;DHT22;27746;52.228;20.890;2023-05-07T14:41:26;11.70;85.40
42085;DHT22;27746;52.228;20.890;2023-05-07T14:43:53;11.60;86.30
42085;DHT22;27746;52.228;20.890;2023-05-07T14:46:20;11.60;86.80
42085;DHT22;27746;52.228;20.890;2023-05-07T14:48:47;11.60;85.60
42085;DHT22;27746;52.228;20.890;2023-05-07T14:51:14;11.70;86.40
42085;DHT22;27746;52.228;20.890;2023-05-07T14:53:41;11.50;87.60
42085;DHT22;27746;52.228;20.890;2023-05-07T14:56:09;11.50;87.10
42085;DHT22;27746;52.228;20.890;2023-05-07T14:58:36;11.60;87.70
42085;DHT22;27746;52.228;20.890;2023-05-07T15:01:03;11.50;86.50
42085;DHT22;27746;52.228;20.890;2023-05-07T15:03:30;11.50;86.90
42085;DHT22;27746;52.228;20.890;2023-05-07T15:05:57;11.50;87.60
42085;DHT22;27746;52.228;20.890;2023-05-07T15:08:24;11.40;88.20
42085;DHT22;27746;52.228;20.890;2023-05-07T15:10:51;11.40;86.40
42085;DHT22;27746;52.228;20.890;2023-05-07T15:13:19;11.50;86.50
42085;DHT22;27746;52.228;20.890;2023-05-07T15:15:46;11.60;85.20
42085;DHT22;27746;52.228;20.890;2023-05-07T15:18:15;11.50;83.70
42085;DHT22;27746;52.228;20.890;2023-05-07T15:20:42;11.50;85.30
42085;DHT22;27746;52.228;20.890;2023-05-07T15:23:09;11.50;85.90
42085;DHT22;27746;52.228;20.890;2023-05-07T15:25:37;8.30;82.80
42085;DHT22;27746;52.228;20.890;2023-05-07T15:28:04;11.40;85.10
42085;DHT22;27746;52.228;20.890;2023-05-07T15:30:32;11.40;84.60
42085;DHT22;27746;52.228;20.890;2023-05-07T15:33:00;11.40;86.40
42085;DHT22;27746;52.228;20.890;2023-05-07T15:35:27;11.30;84.60
42085;DHT22;27746;52.228;20.890;2023-05-07T15:37:54;11.40;84.30
42085;DHT22;27746;52.228;20.890;2023-05-07T15:40:21;11.30;84.60
42085;DHT22;27746;52.228;20.890;2023-05-07T15:42:48;11.30;83.60
42085;DHT22;27746;52.228;20.890;2023-05-07T15:45:15;11.20;85.00
42085;DHT22;27746;52.228;20.890;2023-05-07T15:47:43;11.20;85.60
42085;DHT22;27746;52.228;20.890;2023-05-07T15:50:10;11.20;84.70
42085;DHT22;27746;52.228;20.890;2023-05-07T15:52:37;11.30;83.00
42085;DHT22;27746;52.228;20.890;2023-05-07T15:55:07;11.30;83.70
42085;DHT22;27746;52.228;20.890;2023-05-07T15:57:34;11.20;83.50
42085;DHT22;27746;52.228;20.890;2023-05-07T16:00:01;11.20;84.20
42085;DHT22;27746;52.228;20.890;2023-05-07T16:02:33;11.20;84.20
42085;DHT22;27746;52.228;20.890;2023-05-07T16:05:03;11.10;84.10
42085;DHT22;27746;52.228;20.890;2023-05-07T16:07:29;11.10;84.50
42085;DHT22;27746;52.228;20.890;2023-05-07T16:09:56;11.10;84.00
42085;DHT22;27746;52.228;20.890;2023-05-07T16:12:23;11.10;84.20
42085;DHT22;27746;52.228;20.890;2023-05-07T16:14:50;11.10;85.10
42085;DHT22;27746;52.228;20.890;2023-05-07T16:17:17;11.10;85.90
42085;DHT22;27746;52.228;20.890;2023-05-07T16:19:44;11.10;85.00
42085;DHT22;27746;52.228;20.890;2023-05-07T16:22:12;11.10;85.30
42085;DHT22;27746;52.228;20.890;2023-05-07T16:24:39;11.10;84.70
42085;DHT22;27746;52.228;20.890;2023-05-07T16:27:06;11.10;85.00
42085;DHT22;27746;52.228;20.890;2023-05-07T16:29:33;11.00;84.80
42085;DHT22;27746;52.228;20.890;2023-05-07T16:32:00;11.00;85.30
42085;DHT22;27746;52.228;20.890;2023-05-07T16:34:27;11.00;85.10
42085;DHT22;27746;52.228;20.890;2023-05-07T16:36:54;11.00;85.80
42085;DHT22;27746;52.228;20.890;2023-05-07T16:39:23;11.00;85.60
42085;DHT22;27746;52.228;20.890;2023-05-07T16:41:50;11.00;86.10
42085;DHT22;27746;52.228;20.890;2023-05-07T16:44:18;11.00;86.60
42085;DHT22;27746;52.228;20.890;2023-05-07T16:46:45;11.00;86.40
42085;DHT22;27746;52.228;20.890;2023-05-07T16:49:12;10.90;85.20
42085;DHT22;27746;52.228;20.890;2023-05-07T16:51:39;10.90;84.60
42085;DHT22;27746;52.228;20.890;2023-05-07T16:54:07;10.80;84.10
42085;DHT22;27746;52.228;20.890;2023-05-07T16:56:36;10.80;84.60
42085;DHT22;27746;52.228;20.890;2023-05-07T16:59:03;10.80;84.80
42085;DHT22;27746;52.228;20.890;2023-05-07T17:01:31;10.80;85.40
42085;DHT22;27746;52.228;20.890;2023-05-07T17:03:58;10.80;84.90
42085;DHT22;27746;52.228;20.890;2023-05-07T17:06:27;10.80;85.30
42085;DHT22;27746;52.228;20.890;2023-05-07T17:08:54;10.90;84.90
42085;DHT22;27746;52.228;20.890;2023-05-07T17:11:21;10.80;84.90
42085;DHT22;27746;52.228;20.890;2023-05-07T17:13:49;10.70;85.00
42085;DHT22;27746;52.228;20.890;2023-05-07T17:16:17;10.80;85.40
42085;DHT22;27746;52.228;20.890;2023-05-07T17:18:44;10.70;85.00
42085;DHT22;27746;52.228;20.890;2023-05-07T17:21:10;10.70;85.40
42085;DHT22;27746;52.228;20.890;2023-05-07T17:23:37;10.70;85.10
42085;DHT22;27746;52.228;20.890;2023-05-07T17:26:10;10.70;85.70
42085;DHT22;27746;52.228;20.890;2023-05-07T17:28:38;10.60;85.30
42085;DHT22;27746;52.228;20.890;2023-05-07T17:31:06;10.60;85.50
42085;DHT22;27746;52.228;20.890;2023-05-07T17:33:33;10.60;85.90
42085;DHT22;27746;52.228;20.890;2023-05-07T17:36:00;10.50;85.80
42085;DHT22;27746;52.228;20.890;2023-05-07T17:38:28;10.50;85.40
42085;DHT22;27746;52.228;20.890;2023-05-07T17:40:55;10.50;86.20
42085;DHT22;27746;52.228;20.890;2023-05-07T17:43:22;10.40;86.40
42085;DHT22;27746;52.228;20.890;2023-05-07T17:45:49;10.40;86.80
42085;DHT22;27746;52.228;20.890;2023-05-07T17:48:17;10.40;87.40
42085;DHT22;27746;52.228;20.890;2023-05-07T17:50:45;10.40;87.40
42085;DHT22;27746;52.228;20.890;2023-05-07T17:53:12;10.30;87.60
42085;DHT22;27746;52.228;20.890;2023-05-07T17:55:40;10.30;87.80
42085;DHT22;27746;52.228;20.890;2023-05-07T17:58:08;10.30;88.10
42085;DHT22;27746;52.228;20.890;2023-05-07T18:00:35;10.30;88.60
42085;DHT22;27746;52.228;20.890;2023-05-07T18:03:03;10.20;88.40
42085;DHT22;27746;52.228;20.890;2023-05-07T18:05:34;10.10;89.20
42085;DHT22;27746;52.228;20.890;2023-05-07T18:08:02;10.10;89.80
42085;DHT22;27746;52.228;20.890;2023-05-07T18:10:29;10.00;90.10
42085;DHT22;27746;52.228;20.890;2023-05-07T18:12:56;9.90;90.20
42085;DHT22;27746;52.228;20.890;2023-05-07T18:15:23;9.90;90.40
42085;DHT22;27746;52.228;20.890;2023-05-07T18:17:49;10.10;90.70
42085;DHT22;27746;52.228;20.890;2023-05-07T18:20:16;9.70;90.80
42085;DHT22;27746;52.228;20.890;2023-05-07T18:22:44;9.70;91.00
42085;DHT22;27746;52.228;20.890;2023-05-07T18:25:11;9.60;91.30
42085;DHT22;27746;52.228;20.890;2023-05-07T18:27:38;9.60;91.20
42085;DHT22;27746;52.228;20.890;2023-05-07T18:30:06;9.70;91.50
42085;DHT22;27746;52.228;20.890;2023-05-07T18:32:33;9.40;91.50
42085;DHT22;27746;52.228;20.890;2023-05-07T18:35:00;9.50;91.80
42085;DHT22;27746;52.228;20.890;2023-05-07T18:37:28;9.30;91.80
42085;DHT22;27746;52.228;20.890;2023-05-07T18:39:57;9.30;91.80
42085;DHT22;27746;52.228;20.890;2023-05-07T18:42:26;9.30;91.90
42085;DHT22;27746;52.228;20.890;2023-05-07T18:44:53;9.20;92.10
42085;DHT22;27746;52.228;20.890;2023-05-07T18:47:20;9.20;92.10
42085;DHT22;27746;52.228;20.890;2023-05-07T18:49:47;9.10;92.20
42085;DHT22;27746;52.228;20.890;2023-05-07T18:52:14;9.20;92.40
42085;DHT22;27746;52.228;20.890;2023-05-07T18:54:41;9.10;92.40
42085;DHT22;27746;52.228;20.890;2023-05-07T18:57:10;9.10;92.50
42085;DHT22;27746;52.228;20.890;2023-05-07T18:59:36;9.00;92.60
42085;DHT22;27746;52.228;20.890;2023-05-07T19:02:03;9.00;92.50
42085;DHT22;27746;52.228;20.890;2023-05-07T19:04:30;9.00;92.60
42085;DHT22;27746;52.228;20.890;2023-05-07T19:06:57;9.00;92.80
42085;DHT22;27746;52.228;20.890;2023-05-07T19:09:24;8.90;92.80
42085;DHT22;27746;52.228;20.890;2023-05-07T19:11:51;8.90;93.00
42085;DHT22;27746;52.228;20.890;2023-05-07T19:14:19;8.90;93.10
42085;DHT22;27746;52.228;20.890;2023-05-07T19:16:46;8.80;93.10
42085;DHT22;27746;52.228;20.890;2023-05-07T19:19:14;8.80;93.10
42085;DHT22;27746;52.228;20.890;2023-05-07T19:21:40;8.80;93.40